• Join FlightAware (Why Join?)
  • Login
  • US Flag 
10:35AM EDT


 

Airport Tracker/Info


-or-


 

Live Flight TrackerFlight Track Log ✈ CCA1294 ✈ 16-Nov-2013 ✈ ZWWW / URC - ZBAA / PEK

Flight Track Log - Related Links

Times and Time Zones

All times are in EST time to prevent confusion due to time zone crossing. See the CCA1294 flight status page for this flight to view local times or setup timezone preferences in your user account.

Time Position Orientation Groundspeed Altitude Reporting Facility
EST Latitude Longitude Course Direction KTS MPH feet Rate Location/Type
06:13AM 43.9063 87.9610 90° East  Level Estimated
06:14AM 43.9056 88.1233 90° East  Level Estimated
06:15AM 43.9047 88.2855 90° East  Level Estimated
06:16AM 43.9035 88.4477 91° East  Level Estimated
06:17AM 43.9021 88.6100 91° East  Level Estimated
06:18AM 43.9005 88.7722 91° East  Level Estimated
06:19AM 43.8986 88.9344 91° East  Level Estimated
06:20AM 43.8965 89.0966 91° East  Level Estimated
06:21AM 43.8942 89.2588 91° East  Level Estimated
06:22AM 43.8917 89.4210 91° East  Level Estimated
06:23AM 43.8889 89.5831 91° East  Level Estimated
06:24AM 43.8859 89.7453 91° East  Level Estimated
06:25AM 43.8826 89.9074 92° East  Level Estimated
06:26AM 43.8792 90.0695 92° East  Level Estimated
06:27AM 43.8755 90.2316 92° East  Level Estimated
06:28AM 43.8715 90.3937 92° East  Level Estimated
06:29AM 43.8674 90.5557 92° East  Level Estimated
06:30AM 43.8630 90.7178 92° East  Level Estimated
06:31AM 43.8584 90.8798 92° East  Level Estimated
06:32AM 43.8535 91.0417 92° East  Level Estimated
06:33AM 43.8485 91.2037 92° East  Level Estimated
06:34AM 43.8432 91.3656 93° East  Level Estimated
06:35AM 43.8376 91.5275 93° East  Level Estimated
06:36AM 43.8319 91.6893 93° East  Level Estimated
06:37AM 43.8259 91.8512 93° East  Level Estimated
06:38AM 43.8197 92.0130 93° East  Level Estimated
06:39AM 43.8133 92.1747 93° East  Level Estimated
06:40AM 43.8066 92.3365 93° East  Level Estimated
06:41AM 43.7997 92.4982 93° East  Level Estimated
06:42AM 43.7925 92.6598 93° East  Level Estimated
06:43AM 43.7852 92.8214 94° East  Level Estimated
06:44AM 43.7776 92.9830 94° East  Level Estimated
06:45AM 43.7698 93.1445 94° East  Level Estimated
06:46AM 43.7618 93.3060 94° East  Level Estimated
06:47AM 43.7535 93.4675 94° East  Level Estimated
06:48AM 43.7450 93.6289 94° East  Level Estimated
06:49AM 43.7363 93.7902 94° East  Level Estimated
06:50AM 43.7274 93.9515 94° East  Level Estimated
06:51AM 43.7182 94.1128 94° East  Level Estimated
06:52AM 43.7088 94.2740 95° East  Level Estimated
06:53AM 43.6992 94.4351 95° East  Level Estimated
06:54AM 43.6893 94.5962 95° East  Level Estimated
06:55AM 43.6792 94.7573 95° East  Level Estimated
06:56AM 43.6689 94.9183 95° East  Level Estimated
06:57AM 43.6584 95.0792 95° East  Level Estimated
06:58AM 43.6477 95.2401 95° East  Level Estimated
06:59AM 43.6367 95.4009 95° East  Level Estimated
07:00AM 43.6255 95.5617 95° East  Level Estimated
07:01AM 43.6141 95.7224 96° East  Level Estimated
07:02AM 43.6024 95.8830 96° East  Level Estimated
07:03AM 43.5905 96.0436 96° East  Level Estimated
07:04AM 43.5784 96.2041 96° East  Level Estimated
07:05AM 43.5661 96.3645 96° East  Level Estimated
07:06AM 43.5535 96.5249 96° East  Level Estimated
07:07AM 43.5407 96.6852 96° East  Level Estimated
07:08AM 43.5277 96.8455 96° East  Level Estimated
07:09AM 43.5145 97.0057 96° East  Level Estimated
07:10AM 43.5011 97.1658 97° East  Level Estimated
07:11AM 43.4874 97.3258 97° East  Level Estimated
07:12AM 43.4735 97.4858 97° East  Level Estimated
07:13AM 43.4594 97.6457 97° East  Level Estimated
07:14AM 43.4450 97.8055 97° East  Level Estimated
07:15AM 43.4305 97.9652 97° East  Level Estimated
07:16AM 43.4157 98.1249 97° East  Level Estimated
07:17AM 43.4007 98.2844 97° East  Level Estimated
07:18AM 43.3855 98.4439 97° East  Level Estimated
07:19AM 43.3700 98.6034 98° East  Level Estimated
07:20AM 43.3543 98.7627 98° East  Level Estimated
07:21AM 43.3385 98.9220 98° East  Level Estimated
07:22AM 43.3223 99.0811 98° East  Level Estimated
07:23AM 43.3060 99.2402 98° East  Level Estimated
07:24AM 43.2895 99.3992 98° East  Level Estimated
07:25AM 43.2727 99.5581 98° East  Level Estimated
07:26AM 43.2557 99.7170 98° East  Level Estimated
07:27AM 43.2385 99.8757 98° East  Level Estimated
07:28AM 43.2211 100.0343 99° East  Level Estimated
07:29AM 43.2034 100.1929 99° East  Level Estimated
07:30AM 43.1855 100.3514 99° East  Level Estimated
07:31AM 43.1674 100.5097 99° East  Level Estimated
07:32AM 43.1491 100.6680 99° East  Level Estimated
07:33AM 43.1306 100.8262 99° East  Level Estimated
07:34AM 43.1119 100.9843 99° East  Level Estimated
07:35AM 43.0929 101.1423 99° East  Level Estimated
07:36AM 43.0737 101.3001 99° East  Level Estimated
07:37AM 43.0543 101.4579 99° East  Level Estimated
07:38AM 43.0347 101.6156 100° East  Level Estimated
07:39AM 43.0149 101.7732 100° East  Level Estimated
07:40AM 42.9949 101.9307 100° East  Level Estimated
07:41AM 42.9746 102.0881 100° East  Level Estimated
07:42AM 42.9541 102.2454 100° East  Level Estimated
07:43AM 42.9334 102.4025 100° East  Level Estimated
07:44AM 42.9125 102.5596 100° East  Level Estimated
07:45AM 42.8914 102.7165 100° East  Level Estimated
07:46AM 42.8700 102.8734 100° East  Level Estimated
07:47AM 42.8485 103.0301 101° East  Level Estimated
07:48AM 42.8267 103.1868 101° East  Level Estimated
07:49AM 42.8048 103.3433 101° East  Level Estimated
07:50AM 42.7826 103.4997 101° East  Level Estimated
07:51AM 42.7602 103.6560 101° East  Level Estimated
07:52AM 42.7376 103.8122 101° East  Level Estimated
07:53AM 42.7147 103.9682 101° East  Level Estimated
07:54AM 42.6917 104.1242 101° East  Level Estimated
07:55AM 42.6684 104.2800 101° East  Level Estimated
07:56AM 42.6450 104.4358 102° East  Level Estimated
07:57AM 42.6213 104.5913 102° East  Level Estimated
07:58AM 42.5974 104.7468 102° East  Level Estimated
07:59AM 42.5733 104.9022 102° East  Level Estimated
08:00AM 42.5490 105.0574 102° East  Level Estimated
08:01AM 42.5245 105.2125 102° East  Level Estimated
08:02AM 42.4998 105.3676 102° East  Level Estimated
08:03AM 42.4749 105.5224 102° East  Level Estimated
08:04AM 42.4497 105.6772 102° East  Level Estimated
08:05AM 42.4244 105.8318 102° East  Level Estimated
08:06AM 42.3988 105.9863 103° East  Level Estimated
08:07AM 42.3731 106.1407 103° East  Level Estimated
08:08AM 42.3471 106.2949 103° East  Level Estimated
08:09AM 42.3209 106.4491 103° East  Level Estimated
08:10AM 42.2946 106.6031 103° East  Level Estimated
08:11AM 42.2680 106.7569 103° East  Level Estimated
08:12AM 42.2412 106.9106 103° East  Level Estimated
08:13AM 42.2142 107.0642 103° East  Level Estimated
08:14AM 42.1870 107.2177 103° East  Level Estimated
08:15AM 42.1596 107.3710 104° East  Level Estimated
08:16AM 42.1320 107.5242 104° East  Level Estimated
08:17AM 42.1042 107.6773 104° East  Level Estimated
08:18AM 42.0761 107.8303 104° East  Level Estimated
08:19AM 42.0479 107.9831 104° East  Level Estimated
08:20AM 42.0195 108.1357 104° East  Level Estimated
08:21AM 41.9909 108.2883 104° East  Level Estimated
08:22AM 41.9621 108.4406 104° East  Level Estimated
08:23AM 41.9330 108.5929 104° East  Level Estimated
08:24AM 41.9038 108.7450 104° East  Level Estimated
08:25AM 41.8744 108.8970 105° East  Level Estimated
08:26AM 41.8447 109.0488 105° East  Level Estimated
08:27AM 41.8149 109.2005 105° East  Level Estimated
08:28AM 41.7849 109.3520 105° East  Level Estimated
08:29AM 41.7547 109.5034 105° East  Level Estimated
08:30AM 41.7242 109.6547 105° East  Level Estimated
08:31AM 41.6936 109.8058 105° East  Level Estimated
08:32AM 41.6628 109.9568 105° East  Level Estimated
08:33AM 41.6318 110.1076 105° East  Level Estimated
08:34AM 41.6006 110.2583 105° East  Level Estimated
08:35AM 41.5692 110.4089 106° East  Level Estimated
08:36AM 41.5376 110.5593 106° East  Level Estimated
08:37AM 41.5057 110.7095 106° East  Level Estimated
08:38AM 41.4738 110.8596 106° East  Level Estimated
08:39AM 41.4416 111.0096 106° East  Level Estimated
08:40AM 41.4092 111.1593 106° East  Level Estimated
08:41AM 41.3766 111.3090 106° East  Level Estimated
08:42AM 41.3438 111.4585 106° East  Level Estimated
08:43AM 41.3108 111.6078 106° East  Level Estimated
08:44AM 41.2777 111.7570 106° East  Level Estimated
08:45AM 41.2443 111.9061 107° East  Level Estimated
08:46AM 41.2108 112.0550 107° East  Level Estimated
08:47AM 41.1770 112.2037 107° East  Level Estimated
08:48AM 41.1431 112.3523 107° East  Level Estimated
08:49AM 41.1090 112.5007 107° East  Level Estimated
08:50AM 41.0747 112.6490 107° East  Level Estimated
08:51AM 41.0402 112.7971 107° East  Level Estimated
08:52AM 41.0055 112.9451 107° East  Level Estimated
08:53AM 40.9706 113.0929 107° East  Level Estimated
08:54AM 40.9355 113.2406 107° East  Level Estimated
08:55AM 40.9003 113.3881 108° East  Level Estimated
08:56AM 40.8648 113.5354 108° East  Level Estimated
08:57AM 40.8292 113.6826 108° East  Level Estimated
08:58AM 40.7934 113.8296 108° East  Level Estimated
08:59AM 40.7574 113.9765 108° East  Level Estimated
09:00AM 40.7212 114.1232 108° East  Level Estimated
09:01AM 40.6848 114.2697 108° East  Level Estimated
09:02AM 40.6483 114.4161 108° East  Level Estimated
09:03AM 40.6115 114.5623 108° East  Level Estimated
09:04AM 40.5746 114.7084 108° East  Level Estimated
09:05AM 40.5375 114.8543 108° East  Level Estimated
09:06AM 40.5002 115.0000 109° East  Level Estimated
09:07AM 40.4627 115.1456 109° East  Level Estimated
09:08AM 40.4251 115.2910 109° East  Level Estimated
09:09AM 40.3872 115.4362 109° East  Level Estimated
09:10AM 40.3492 115.5813 109° East  Level Estimated
09:11AM 40.3110 115.7263 109° East  Level Estimated
09:12AM 40.2726 115.8710 109° East  Level Estimated
09:13AM 40.2340 116.0156 109° East  Level Estimated
09:14AM 40.1953 116.1600 109° East  Level Estimated
09:15AM 40.1564 116.3043 109° East  Level Estimated
09:16AM 40.1173 116.4484 109° East  Level Estimated
09:17AM 40.0801 116.5846 110° East  Level Estimated
09:18AM 40.0801 116.5846 288° West  Level Estimated
09:19AM 40.0801 116.5846 288° West  Level Estimated
09:20AM 40.0801 116.5846 288° West  Level Estimated
09:21AM 40.0801 116.5846 288° West  Level Estimated
09:22AM 40.0801 116.5846 288° West  Level Estimated
09:23AM 40.0801 116.5846 288° West  Level Estimated
09:24AM 40.0801 116.5846 288° West  Level Estimated
09:25AM 40.0801 116.5846 288° West  Level Estimated
09:26AM 40.0801 116.5846 288° West  Level Estimated
09:27AM 40.0801 116.5846 288° West  Level Estimated
09:28AM 40.0801 116.5846 288° West  Level Estimated
09:29AM 40.0801 116.5846 288° West  Level Estimated
09:30AM 40.0801 116.5846 288° West  Level Estimated
09:31AM 40.0801 116.5846 288° West  Level Estimated